Terminal Aerodrome Forecast
Issued by NWS

Home | Current Version | Previous Version | Text Only | Print | Product List | Glossary On
Versions: 1 2 3 4 5 6 7 8 9 10 11 12 13
000
FTUS44 KCRP 031124
TAFLRD
TAF
KLRD 031124Z 0312/0412 14010KT P6SM SCT025 BKN050
     FM031600 16014KT P6SM BKN060
     FM032300 12014KT P6SM BKN070
     FM040700 14013KT P6SM BKN015 OVC200=

USA.gov is the U.S. government's official web portal to all federal, state and local government web resources and services.